Opdyke, IL (62872)

06:41 AM CDT del 01 novembre 2014 (GMT -0500)
Bluford | Change Station
CLOSE
Current Station
Stazione meteo personale
Location: Bluford, IL
Altitudine: 515 ft
Stazioni meteo nelle vicinanze
Avvisi attivi: Freeze Warning

Alt. 515 ft 38.32 °N, 88.74 °W | Updated 8 minutes ago

Sereno
Sereno
31.7 °F
Sembra 26 °F
N
6.0
Vento Variabile Vento da NO
Gusts 10.0 mph

Oggi
Massima -- | Minima -- °F
--% Possibilità di precip.
Ieri
Massima -- | Minima -- °F
Precip. -- in
7:21 AM 5:55 PM
Gobba a ponente, 65% visible
Pressione 30.38 in
Visibilità 10.0 miglia
Nuvole Sereno
Raffreddamento del vento 26 °F
Punto di rugiada 24 °F
Umidità 73%
Piovosità 0.00 in
Spessore del manto nevoso Non disponibile.
Raggi UV 0 fuori da 12
Polline .30 fuori da 12
Qualità dell'aria Non disponibile.
Flu Activity Non disponibile.
METAR KMVN 011135Z AUTO 36003KT 10SM CLR M01/M07 A3038 RMK AO1

More Conditions Fewer Conditions

Pressione 30.38 in
Visibilità 10.0 miglia
Nuvole Sereno
Raffreddamento del vento 26 °F
Punto di rugiada 24 °F
Umidità 73%
Piovosità 0.00 in
Spessore del manto nevoso Non disponibile.
Raggi UV 0 fuori da 12
Polline .30 fuori da 12
Qualità dell'aria Non disponibile.
Flu Activity Non disponibile.
METAR KMVN 011135Z AUTO 36003KT 10SM CLR M01/M07 A3038 RMK AO1

More Conditions Fewer Conditions

10-Day Weather Forecast

Almanac

Astronomia

Nov. 01, 2014 Alba Tramonto
Ora attuale
Crepuscolo civile
Crepuscolo nautico
Crepuscolo astronomico
Luna
Estensione della luce visibile
Lunghezza del giorno
Tomorrow will be .
, % of the Moon is Illuminated

Gli estremi di oggi

State Highs State Lows

Community

WunderPhotos

Upload Photos

1,766,903 foto caricate!

WunderBlogs® & News

Nearby

Qualità dell'aria

  Qualità dell'aria Indice AQ Inquinante
Not available.

Profondità neve

Stazione Profondità Altitudine

Attività sismica

Città  Distanza Mag. Data & Ora
Minimo Magnitudo Mostrato è 2.5.

Temperature delle acque costiere

Località Temperatura

Stazioni meteo nelle vicinanze